sensor_id;sensor_type;location;lat;lon;timestamp;temperature;humidity
6468;DHT22;3267;48.794;9.928;2023-02-04T05:06:53;7.30;99.90
6468;DHT22;3267;48.794;9.928;2023-02-04T05:09:19;7.60;99.90
6468;DHT22;3267;48.794;9.928;2023-02-04T05:11:44;7.30;99.90
6468;DHT22;3267;48.794;9.928;2023-02-04T05:14:11;7.30;99.90
6468;DHT22;3267;48.794;9.928;2023-02-04T05:16:36;7.30;99.90
6468;DHT22;3267;48.794;9.928;2023-02-04T05:19:02;7.40;99.90
6468;DHT22;3267;48.794;9.928;2023-02-04T05:21:28;7.10;99.90
6468;DHT22;3267;48.794;9.928;2023-02-04T05:26:19;7.20;99.90
6468;DHT22;3267;48.794;9.928;2023-02-04T05:28:45;7.10;99.90
6468;DHT22;3267;48.794;9.928;2023-02-04T05:33:36;7.20;99.90
6468;DHT22;3267;48.794;9.928;2023-02-04T05:36:02;7.30;99.90
6468;DHT22;3267;48.794;9.928;2023-02-04T05:38:28;8.20;99.90
6468;DHT22;3267;48.794;9.928;2023-02-04T05:40:53;7.40;99.90
6468;DHT22;3267;48.794;9.928;2023-02-04T05:43:19;7.10;99.90
6468;DHT22;3267;48.794;9.928;2023-02-04T05:48:10;7.30;99.90
6468;DHT22;3267;48.794;9.928;2023-02-04T05:50:36;7.50;99.90
6468;DHT22;3267;48.794;9.928;2023-02-04T05:53:02;7.30;99.90
6468;DHT22;3267;48.794;9.928;2023-02-04T05:55:27;7.00;99.90
6468;DHT22;3267;48.794;9.928;2023-02-04T05:57:53;7.40;99.90
6468;DHT22;3267;48.794;9.928;2023-02-04T06:00:19;7.00;99.90
6468;DHT22;3267;48.794;9.928;2023-02-04T06:02:44;7.00;99.90
6468;DHT22;3267;48.794;9.928;2023-02-04T06:05:10;7.10;99.90
6468;DHT22;3267;48.794;9.928;2023-02-04T06:07:36;6.90;99.90
6468;DHT22;3267;48.794;9.928;2023-02-04T06:10:01;7.00;99.90
6468;DHT22;3267;48.794;9.928;2023-02-04T06:12:27;7.00;99.90
6468;DHT22;3267;48.794;9.928;2023-02-04T06:14:52;7.00;99.90
6468;DHT22;3267;48.794;9.928;2023-02-04T06:17:21;6.90;99.90
6468;DHT22;3267;48.794;9.928;2023-02-04T06:19:49;7.00;99.90
6468;DHT22;3267;48.794;9.928;2023-02-04T06:22:16;6.90;99.90
6468;DHT22;3267;48.794;9.928;2023-02-04T06:27:08;7.10;99.90
6468;DHT22;3267;48.794;9.928;2023-02-04T06:29:34;6.90;99.90
6468;DHT22;3267;48.794;9.928;2023-02-04T06:31:59;6.90;99.90
6468;DHT22;3267;48.794;9.928;2023-02-04T06:34:25;6.90;99.90
6468;DHT22;3267;48.794;9.928;2023-02-04T06:39:17;7.10;99.90
6468;DHT22;3267;48.794;9.928;2023-02-04T06:41:42;7.10;99.90
6468;DHT22;3267;48.794;9.928;2023-02-04T06:44:08;7.10;99.90
6468;DHT22;3267;48.794;9.928;2023-02-04T06:46:33;7.10;99.90
6468;DHT22;3267;48.794;9.928;2023-02-04T06:48:59;7.20;99.90
6468;DHT22;3267;48.794;9.928;2023-02-04T06:51:24;7.20;99.90
6468;DHT22;3267;48.794;9.928;2023-02-04T06:53:50;7.20;99.90
6468;DHT22;3267;48.794;9.928;2023-02-04T06:56:17;7.20;99.90
6468;DHT22;3267;48.794;9.928;2023-02-04T06:58:42;7.20;99.90
6468;DHT22;3267;48.794;9.928;2023-02-04T07:01:08;7.40;99.90
6468;DHT22;3267;48.794;9.928;2023-02-04T07:03:36;7.20;99.90
6468;DHT22;3267;48.794;9.928;2023-02-04T07:06:02;7.30;99.90
6468;DHT22;3267;48.794;9.928;2023-02-04T07:08:27;7.20;99.90
6468;DHT22;3267;48.794;9.928;2023-02-04T07:10:53;7.20;99.90
6468;DHT22;3267;48.794;9.928;2023-02-04T07:13:19;7.10;99.90
6468;DHT22;3267;48.794;9.928;2023-02-04T07:15:45;7.30;99.90
6468;DHT22;3267;48.794;9.928;2023-02-04T07:20:36;7.20;99.90
6468;DHT22;3267;48.794;9.928;2023-02-04T07:23:02;7.20;99.90
6468;DHT22;3267;48.794;9.928;2023-02-04T07:25:27;7.20;99.90
6468;DHT22;3267;48.794;9.928;2023-02-04T07:30:20;7.20;99.90
6468;DHT22;3267;48.794;9.928;2023-02-04T07:32:46;7.20;99.90
6468;DHT22;3267;48.794;9.928;2023-02-04T07:35:11;7.30;99.90
6468;DHT22;3267;48.794;9.928;2023-02-04T07:37:37;7.50;99.90
6468;DHT22;3267;48.794;9.928;2023-02-04T07:40:04;7.30;99.90
6468;DHT22;3267;48.794;9.928;2023-02-04T07:42:30;7.20;99.90
6468;DHT22;3267;48.794;9.928;2023-02-04T07:47:22;7.40;99.90
6468;DHT22;3267;48.794;9.928;2023-02-04T07:49:47;7.40;99.90
6468;DHT22;3267;48.794;9.928;2023-02-04T07:52:13;7.30;99.90
6468;DHT22;3267;48.794;9.928;2023-02-04T07:54:39;7.40;99.90
6468;DHT22;3267;48.794;9.928;2023-02-04T07:57:04;7.40;99.90
6468;DHT22;3267;48.794;9.928;2023-02-04T07:59:30;7.50;99.90
6468;DHT22;3267;48.794;9.928;2023-02-04T08:01:55;7.50;99.90
6468;DHT22;3267;48.794;9.928;2023-02-04T08:04:21;7.50;99.90
6468;DHT22;3267;48.794;9.928;2023-02-04T08:06:46;7.50;99.90
6468;DHT22;3267;48.794;9.928;2023-02-04T08:09:12;7.60;99.90
6468;DHT22;3267;48.794;9.928;2023-02-04T08:11:38;7.50;99.90
6468;DHT22;3267;48.794;9.928;2023-02-04T08:14:03;7.70;99.90
6468;DHT22;3267;48.794;9.928;2023-02-04T08:16:29;7.60;99.90
6468;DHT22;3267;48.794;9.928;2023-02-04T08:18:54;7.60;99.90
6468;DHT22;3267;48.794;9.928;2023-02-04T08:21:20;7.70;99.90
6468;DHT22;3267;48.794;9.928;2023-02-04T08:23:46;7.80;99.90
6468;DHT22;3267;48.794;9.928;2023-02-04T08:26:11;7.70;99.90
6468;DHT22;3267;48.794;9.928;2023-02-04T08:28:37;7.70;99.90
6468;DHT22;3267;48.794;9.928;2023-02-04T08:31:04;7.70;99.90
6468;DHT22;3267;48.794;9.928;2023-02-04T08:33:31;7.80;99.90
6468;DHT22;3267;48.794;9.928;2023-02-04T08:35:59;7.80;99.90
6468;DHT22;3267;48.794;9.928;2023-02-04T08:38:25;7.80;99.90
6468;DHT22;3267;48.794;9.928;2023-02-04T08:40:51;7.80;99.90
6468;DHT22;3267;48.794;9.928;2023-02-04T08:43:16;10.50;99.90
6468;DHT22;3267;48.794;9.928;2023-02-04T08:45:42;10.80;99.90
6468;DHT22;3267;48.794;9.928;2023-02-04T08:48:07;8.00;99.90
6468;DHT22;3267;48.794;9.928;2023-02-04T08:50:34;7.90;99.90
6468;DHT22;3267;48.794;9.928;2023-02-04T08:52:59;7.90;99.90
6468;DHT22;3267;48.794;9.928;2023-02-04T08:57:51;7.90;99.90
6468;DHT22;3267;48.794;9.928;2023-02-04T09:00:17;7.90;99.90
6468;DHT22;3267;48.794;9.928;2023-02-04T09:02:43;7.90;99.90
6468;DHT22;3267;48.794;9.928;2023-02-04T09:05:08;7.80;99.90
6468;DHT22;3267;48.794;9.928;2023-02-04T09:07:34;7.80;99.90
6468;DHT22;3267;48.794;9.928;2023-02-04T09:09:59;7.80;99.90
6468;DHT22;3267;48.794;9.928;2023-02-04T09:12:25;7.70;99.90
6468;DHT22;3267;48.794;9.928;2023-02-04T09:14:51;7.70;99.90
6468;DHT22;3267;48.794;9.928;2023-02-04T09:17:16;7.80;99.90
6468;DHT22;3267;48.794;9.928;2023-02-04T09:19:42;7.70;99.90
6468;DHT22;3267;48.794;9.928;2023-02-04T09:22:08;7.70;99.90
6468;DHT22;3267;48.794;9.928;2023-02-04T09:24:33;7.70;99.90
6468;DHT22;3267;48.794;9.928;2023-02-04T09:26:59;7.70;99.90
6468;DHT22;3267;48.794;9.928;2023-02-04T09:29:24;7.70;99.90
6468;DHT22;3267;48.794;9.928;2023-02-04T09:31:50;7.70;99.90
6468;DHT22;3267;48.794;9.928;2023-02-04T09:34:16;7.70;99.90
6468;DHT22;3267;48.794;9.928;2023-02-04T09:36:41;7.80;99.90
6468;DHT22;3267;48.794;9.928;2023-02-04T09:39:07;7.60;99.90
6468;DHT22;3267;48.794;9.928;2023-02-04T09:41:37;7.70;99.90
6468;DHT22;3267;48.794;9.928;2023-02-04T09:44:04;7.60;99.90
6468;DHT22;3267;48.794;9.928;2023-02-04T09:46:34;7.60;99.90
6468;DHT22;3267;48.794;9.928;2023-02-04T09:49:00;7.50;99.90
6468;DHT22;3267;48.794;9.928;2023-02-04T09:51:29;7.60;99.90
6468;DHT22;3267;48.794;9.928;2023-02-04T09:54:11;7.60;99.90
6468;DHT22;3267;48.794;9.928;2023-02-04T09:56:37;7.60;99.90
6468;DHT22;3267;48.794;9.928;2023-02-04T09:59:11;7.60;99.90
6468;DHT22;3267;48.794;9.928;2023-02-04T10:01:37;7.50;99.90
6468;DHT22;3267;48.794;9.928;2023-02-04T10:04:03;7.50;99.90
6468;DHT22;3267;48.794;9.928;2023-02-04T10:06:29;7.60;99.90
6468;DHT22;3267;48.794;9.928;2023-02-04T10:08:54;10.10;99.90
6468;DHT22;3267;48.794;9.928;2023-02-04T10:11:22;7.60;99.90
6468;DHT22;3267;48.794;9.928;2023-02-04T10:13:51;7.60;99.90
6468;DHT22;3267;48.794;9.928;2023-02-04T10:16:30;7.60;99.90
6468;DHT22;3267;48.794;9.928;2023-02-04T10:19:02;7.60;99.90
6468;DHT22;3267;48.794;9.928;2023-02-04T10:21:30;7.60;99.90
6468;DHT22;3267;48.794;9.928;2023-02-04T10:23:58;7.40;99.90
6468;DHT22;3267;48.794;9.928;2023-02-04T10:26:29;7.70;99.90
6468;DHT22;3267;48.794;9.928;2023-02-04T10:29:12;7.50;99.90
6468;DHT22;3267;48.794;9.928;2023-02-04T10:31:40;7.40;99.90
6468;DHT22;3267;48.794;9.928;2023-02-04T10:36:32;7.50;99.90
6468;DHT22;3267;48.794;9.928;2023-02-04T10:38:59;7.50;99.90
6468;DHT22;3267;48.794;9.928;2023-02-04T10:41:25;7.50;99.90
6468;DHT22;3267;48.794;9.928;2023-02-04T10:44:05;7.70;99.90
6468;DHT22;3267;48.794;9.928;2023-02-04T10:46:32;7.70;99.90
6468;DHT22;3267;48.794;9.928;2023-02-04T10:48:58;7.50;99.90
6468;DHT22;3267;48.794;9.928;2023-02-04T10:51:23;9.80;99.90
6468;DHT22;3267;48.794;9.928;2023-02-04T10:53:49;7.60;99.90
6468;DHT22;3267;48.794;9.928;2023-02-04T10:56:33;7.70;99.90
6468;DHT22;3267;48.794;9.928;2023-02-04T10:58:59;7.70;99.90
6468;DHT22;3267;48.794;9.928;2023-02-04T11:01:25;7.90;99.90
6468;DHT22;3267;48.794;9.928;2023-02-04T11:03:53;8.00;99.90
6468;DHT22;3267;48.794;9.928;2023-02-04T11:06:23;8.10;99.90
6468;DHT22;3267;48.794;9.928;2023-02-04T11:08:49;7.90;99.90
6468;DHT22;3267;48.794;9.928;2023-02-04T11:11:21;8.10;99.90
6468;DHT22;3267;48.794;9.928;2023-02-04T11:18:47;8.20;99.90
6468;DHT22;3267;48.794;9.928;2023-02-04T11:26:50;8.30;99.90
6468;DHT22;3267;48.794;9.928;2023-02-04T11:29:31;8.40;99.90
6468;DHT22;3267;48.794;9.928;2023-02-04T11:34:29;8.40;99.90
6468;DHT22;3267;48.794;9.928;2023-02-04T11:37:10;10.00;99.90
6468;DHT22;3267;48.794;9.928;2023-02-04T11:42:21;8.40;99.90
6468;DHT22;3267;48.794;9.928;2023-02-04T11:44:53;8.50;99.90
6468;DHT22;3267;48.794;9.928;2023-02-04T11:47:21;8.50;99.90
6468;DHT22;3267;48.794;9.928;2023-02-04T11:50:00;8.40;99.90
6468;DHT22;3267;48.794;9.928;2023-02-04T11:52:26;8.40;99.90
6468;DHT22;3267;48.794;9.928;2023-02-04T11:54:57;8.40;99.90
6468;DHT22;3267;48.794;9.928;2023-02-04T11:57:24;8.40;99.90
6468;DHT22;3267;48.794;9.928;2023-02-04T11:59:49;8.30;99.90
6468;DHT22;3267;48.794;9.928;2023-02-04T12:02:18;8.30;99.90
6468;DHT22;3267;48.794;9.928;2023-02-04T12:05:12;8.30;99.90
6468;DHT22;3267;48.794;9.928;2023-02-04T12:07:38;10.10;99.90
6468;DHT22;3267;48.794;9.928;2023-02-04T12:12:49;8.40;99.90
6468;DHT22;3267;48.794;9.928;2023-02-04T12:15:20;8.50;99.90
6468;DHT22;3267;48.794;9.928;2023-02-04T12:18:05;8.60;99.90
6468;DHT22;3267;48.794;9.928;2023-02-04T12:20:35;8.60;99.90
6468;DHT22;3267;48.794;9.928;2023-02-04T12:23:01;8.50;99.90
6468;DHT22;3267;48.794;9.928;2023-02-04T12:25:27;8.60;99.90
6468;DHT22;3267;48.794;9.928;2023-02-04T12:27:53;8.70;99.90
6468;DHT22;3267;48.794;9.928;2023-02-04T12:30:21;8.80;99.90
6468;DHT22;3267;48.794;9.928;2023-02-04T12:32:46;8.80;99.90
6468;DHT22;3267;48.794;9.928;2023-02-04T12:35:13;8.80;99.90
6468;DHT22;3267;48.794;9.928;2023-02-04T12:37:38;8.90;99.90
6468;DHT22;3267;48.794;9.928;2023-02-04T12:40:04;8.90;99.90
6468;DHT22;3267;48.794;9.928;2023-02-04T12:42:30;9.10;99.90
6468;DHT22;3267;48.794;9.928;2023-02-04T12:44:56;9.10;99.90
6468;DHT22;3267;48.794;9.928;2023-02-04T12:47:22;9.10;99.90
6468;DHT22;3267;48.794;9.928;2023-02-04T12:49:47;9.20;99.90
6468;DHT22;3267;48.794;9.928;2023-02-04T12:52:16;9.20;99.90
6468;DHT22;3267;48.794;9.928;2023-02-04T12:54:42;9.30;99.90
6468;DHT22;3267;48.794;9.928;2023-02-04T12:57:08;9.40;99.90
6468;DHT22;3267;48.794;9.928;2023-02-04T12:59:35;9.50;99.90
6468;DHT22;3267;48.794;9.928;2023-02-04T13:02:01;9.50;99.90
6468;DHT22;3267;48.794;9.928;2023-02-04T13:04:26;9.60;99.90
6468;DHT22;3267;48.794;9.928;2023-02-04T13:06:52;9.60;99.90
6468;DHT22;3267;48.794;9.928;2023-02-04T13:09:17;9.60;99.90
6468;DHT22;3267;48.794;9.928;2023-02-04T13:11:44;9.70;99.90
6468;DHT22;3267;48.794;9.928;2023-02-04T13:14:09;9.60;99.90
6468;DHT22;3267;48.794;9.928;2023-02-04T13:16:35;12.20;99.90
6468;DHT22;3267;48.794;9.928;2023-02-04T13:19:01;9.70;99.90
6468;DHT22;3267;48.794;9.928;2023-02-04T13:21:26;9.70;99.90
6468;DHT22;3267;48.794;9.928;2023-02-04T13:23:52;9.80;99.90
6468;DHT22;3267;48.794;9.928;2023-02-04T13:26:18;9.60;99.90
6468;DHT22;3267;48.794;9.928;2023-02-04T13:28:43;9.60;99.90
6468;DHT22;3267;48.794;9.928;2023-02-04T13:31:09;9.60;99.90
6468;DHT22;3267;48.794;9.928;2023-02-04T13:33:34;9.70;99.90
6468;DHT22;3267;48.794;9.928;2023-02-04T13:36:00;9.70;99.90
6468;DHT22;3267;48.794;9.928;2023-02-04T13:38:26;9.80;99.90
6468;DHT22;3267;48.794;9.928;2023-02-04T13:40:51;9.80;99.90
6468;DHT22;3267;48.794;9.928;2023-02-04T13:43:17;9.80;99.90
6468;DHT22;3267;48.794;9.928;2023-02-04T13:45:44;9.90;99.90
6468;DHT22;3267;48.794;9.928;2023-02-04T13:48:13;10.00;99.90
6468;DHT22;3267;48.794;9.928;2023-02-04T13:50:39;10.00;99.90
6468;DHT22;3267;48.794;9.928;2023-02-04T13:53:04;10.10;99.90
6468;DHT22;3267;48.794;9.928;2023-02-04T13:55:30;10.20;99.90
6468;DHT22;3267;48.794;9.928;2023-02-04T13:57:56;10.30;99.90
6468;DHT22;3267;48.794;9.928;2023-02-04T14:00:21;10.20;99.90
6468;DHT22;3267;48.794;9.928;2023-02-04T14:02:47;10.20;99.90
6468;DHT22;3267;48.794;9.928;2023-02-04T14:05:14;12.90;99.90
6468;DHT22;3267;48.794;9.928;2023-02-04T14:07:40;10.10;99.90
6468;DHT22;3267;48.794;9.928;2023-02-04T14:10:06;10.10;99.90
6468;DHT22;3267;48.794;9.928;2023-02-04T14:12:32;10.10;99.90
6468;DHT22;3267;48.794;9.928;2023-02-04T14:14:58;10.00;99.90
6468;DHT22;3267;48.794;9.928;2023-02-04T14:17:24;9.90;99.90
6468;DHT22;3267;48.794;9.928;2023-02-04T14:19:50;9.90;99.90
6468;DHT22;3267;48.794;9.928;2023-02-04T14:22:15;9.80;99.90
6468;DHT22;3267;48.794;9.928;2023-02-04T14:24:44;9.70;99.90
6468;DHT22;3267;48.794;9.928;2023-02-04T14:27:12;7.30;99.90
6468;DHT22;3267;48.794;9.928;2023-02-04T14:29:37;9.70;99.90
6468;DHT22;3267;48.794;9.928;2023-02-04T14:32:03;9.60;99.90
6468;DHT22;3267;48.794;9.928;2023-02-04T14:34:29;9.60;99.90
6468;DHT22;3267;48.794;9.928;2023-02-04T14:36:54;9.50;99.90
6468;DHT22;3267;48.794;9.928;2023-02-04T14:39:20;9.40;99.90
6468;DHT22;3267;48.794;9.928;2023-02-04T14:41:45;9.40;99.90
6468;DHT22;3267;48.794;9.928;2023-02-04T14:44:11;9.30;99.90
6468;DHT22;3267;48.794;9.928;2023-02-04T14:46:37;9.30;99.90
6468;DHT22;3267;48.794;9.928;2023-02-04T14:49:05;11.60;99.90
6468;DHT22;3267;48.794;9.928;2023-02-04T14:51:30;9.30;99.90
6468;DHT22;3267;48.794;9.928;2023-02-04T14:53:56;9.30;99.90
6468;DHT22;3267;48.794;9.928;2023-02-04T14:56:22;9.30;99.90
6468;DHT22;3267;48.794;9.928;2023-02-04T14:58:47;9.40;99.90
6468;DHT22;3267;48.794;9.928;2023-02-04T15:01:13;9.40;99.90
6468;DHT22;3267;48.794;9.928;2023-02-04T15:03:38;9.40;99.90
6468;DHT22;3267;48.794;9.928;2023-02-04T15:06:04;9.40;99.90
6468;DHT22;3267;48.794;9.928;2023-02-04T15:08:30;9.50;99.90
6468;DHT22;3267;48.794;9.928;2023-02-04T15:10:57;9.50;99.90
6468;DHT22;3267;48.794;9.928;2023-02-04T15:13:22;9.40;99.90
6468;DHT22;3267;48.794;9.928;2023-02-04T15:15:48;10.70;99.90
6468;DHT22;3267;48.794;9.928;2023-02-04T15:18:14;9.40;99.90
6468;DHT22;3267;48.794;9.928;2023-02-04T15:20:39;9.40;99.90
6468;DHT22;3267;48.794;9.928;2023-02-04T15:23:05;9.30;99.90
6468;DHT22;3267;48.794;9.928;2023-02-04T15:25:31;9.30;99.90
6468;DHT22;3267;48.794;9.928;2023-02-04T15:27:56;9.30;99.90
6468;DHT22;3267;48.794;9.928;2023-02-04T15:30:22;10.00;99.90
6468;DHT22;3267;48.794;9.928;2023-02-04T15:32:47;9.20;99.90
6468;DHT22;3267;48.794;9.928;2023-02-04T15:35:13;9.20;99.90
6468;DHT22;3267;48.794;9.928;2023-02-04T15:37:39;9.20;99.90
6468;DHT22;3267;48.794;9.928;2023-02-04T15:40:05;9.10;99.90
6468;DHT22;3267;48.794;9.928;2023-02-04T15:42:30;9.20;99.90
6468;DHT22;3267;48.794;9.928;2023-02-04T15:44:57;9.10;99.90
6468;DHT22;3267;48.794;9.928;2023-02-04T15:47:23;9.00;99.90
6468;DHT22;3267;48.794;9.928;2023-02-04T15:49:48;8.90;99.90
6468;DHT22;3267;48.794;9.928;2023-02-04T15:52:14;8.40;99.90
6468;DHT22;3267;48.794;9.928;2023-02-04T15:54:40;8.80;99.90
6468;DHT22;3267;48.794;9.928;2023-02-04T15:57:05;8.80;99.90
6468;DHT22;3267;48.794;9.928;2023-02-04T15:59:31;8.80;99.90
6468;DHT22;3267;48.794;9.928;2023-02-04T16:01:56;8.70;99.90
6468;DHT22;3267;48.794;9.928;2023-02-04T16:04:22;8.70;99.90
6468;DHT22;3267;48.794;9.928;2023-02-04T16:06:48;8.60;99.90
6468;DHT22;3267;48.794;9.928;2023-02-04T16:09:13;10.90;99.90
6468;DHT22;3267;48.794;9.928;2023-02-04T16:11:39;8.40;99.90
6468;DHT22;3267;48.794;9.928;2023-02-04T16:14:05;8.60;99.90
6468;DHT22;3267;48.794;9.928;2023-02-04T16:16:31;8.50;99.90
6468;DHT22;3267;48.794;9.928;2023-02-04T16:18:57;8.50;99.90
6468;DHT22;3267;48.794;9.928;2023-02-04T16:21:23;8.50;99.90
6468;DHT22;3267;48.794;9.928;2023-02-04T16:23:48;8.50;99.90
6468;DHT22;3267;48.794;9.928;2023-02-04T16:26:14;8.40;99.90
6468;DHT22;3267;48.794;9.928;2023-02-04T16:28:40;8.40;99.90
6468;DHT22;3267;48.794;9.928;2023-02-04T16:31:05;8.40;99.90
6468;DHT22;3267;48.794;9.928;2023-02-04T16:33:34;8.40;99.90
6468;DHT22;3267;48.794;9.928;2023-02-04T16:36:07;8.30;99.90
6468;DHT22;3267;48.794;9.928;2023-02-04T16:38:36;8.20;99.90
6468;DHT22;3267;48.794;9.928;2023-02-04T16:41:03;8.20;99.90
6468;DHT22;3267;48.794;9.928;2023-02-04T16:43:29;8.20;99.90
6468;DHT22;3267;48.794;9.928;2023-02-04T16:45:55;8.20;99.90
6468;DHT22;3267;48.794;9.928;2023-02-04T16:48:21;8.10;99.90
6468;DHT22;3267;48.794;9.928;2023-02-04T16:50:46;8.10;99.90
6468;DHT22;3267;48.794;9.928;2023-02-04T16:53:12;8.10;99.90
6468;DHT22;3267;48.794;9.928;2023-02-04T16:55:44;7.90;99.90
6468;DHT22;3267;48.794;9.928;2023-02-04T16:58:11;8.00;99.90
6468;DHT22;3267;48.794;9.928;2023-02-04T17:00:37;8.00;99.90
6468;DHT22;3267;48.794;9.928;2023-02-04T17:03:07;8.00;99.90
6468;DHT22;3267;48.794;9.928;2023-02-04T17:05:33;8.00;99.90
6468;DHT22;3267;48.794;9.928;2023-02-04T17:07:58;8.00;99.90
6468;DHT22;3267;48.794;9.928;2023-02-04T17:10:24;7.90;99.90
6468;DHT22;3267;48.794;9.928;2023-02-04T17:13:09;8.80;99.90
6468;DHT22;3267;48.794;9.928;2023-02-04T17:15:35;8.00;99.90
6468;DHT22;3267;48.794;9.928;2023-02-04T17:18:01;8.00;99.90
6468;DHT22;3267;48.794;9.928;2023-02-04T17:20:26;7.90;99.90
6468;DHT22;3267;48.794;9.928;2023-02-04T17:22:52;7.90;99.90
6468;DHT22;3267;48.794;9.928;2023-02-04T17:25:18;7.90;99.90
6468;DHT22;3267;48.794;9.928;2023-02-04T17:27:44;7.90;99.90
6468;DHT22;3267;48.794;9.928;2023-02-04T17:30:10;8.00;99.90
6468;DHT22;3267;48.794;9.928;2023-02-04T17:32:35;7.90;99.90
6468;DHT22;3267;48.794;9.928;2023-02-04T17:35:01;7.90;99.90
6468;DHT22;3267;48.794;9.928;2023-02-04T17:37:27;7.90;99.90
6468;DHT22;3267;48.794;9.928;2023-02-04T17:39:52;8.10;99.90
6468;DHT22;3267;48.794;9.928;2023-02-04T17:42:18;8.00;99.90
6468;DHT22;3267;48.794;9.928;2023-02-04T17:44:44;8.00;99.90
6468;DHT22;3267;48.794;9.928;2023-02-04T17:47:10;10.80;99.90
6468;DHT22;3267;48.794;9.928;2023-02-04T17:49:35;8.40;99.90
6468;DHT22;3267;48.794;9.928;2023-02-04T17:52:01;8.40;99.90
6468;DHT22;3267;48.794;9.928;2023-02-04T17:54:27;8.50;99.90
6468;DHT22;3267;48.794;9.928;2023-02-04T17:56:56;8.50;99.90
6468;DHT22;3267;48.794;9.928;2023-02-04T17:59:22;8.40;99.90
6468;DHT22;3267;48.794;9.928;2023-02-04T18:01:48;8.30;99.90
6468;DHT22;3267;48.794;9.928;2023-02-04T18:04:14;8.10;99.90
6468;DHT22;3267;48.794;9.928;2023-02-04T18:06:39;8.00;99.90
6468;DHT22;3267;48.794;9.928;2023-02-04T18:09:16;8.00;99.90
6468;DHT22;3267;48.794;9.928;2023-02-04T18:11:43;7.90;99.90
6468;DHT22;3267;48.794;9.928;2023-02-04T18:14:16;7.90;99.90
6468;DHT22;3267;48.794;9.928;2023-02-04T18:16:44;7.80;99.90
6468;DHT22;3267;48.794;9.928;2023-02-04T18:19:19;7.80;99.90
6468;DHT22;3267;48.794;9.928;2023-02-04T18:21:46;7.80;99.90
6468;DHT22;3267;48.794;9.928;2023-02-04T18:24:16;7.70;99.90
6468;DHT22;3267;48.794;9.928;2023-02-04T18:26:51;7.70;99.90
6468;DHT22;3267;48.794;9.928;2023-02-04T18:31:52;7.50;99.90
6468;DHT22;3267;48.794;9.928;2023-02-04T18:34:36;7.50;99.90
6468;DHT22;3267;48.794;9.928;2023-02-04T18:39:51;7.70;99.90
6468;DHT22;3267;48.794;9.928;2023-02-04T18:42:23;7.80;99.90
6468;DHT22;3267;48.794;9.928;2023-02-04T18:44:49;7.80;99.90
6468;DHT22;3267;48.794;9.928;2023-02-04T18:47:28;7.80;99.90
6468;DHT22;3267;48.794;9.928;2023-02-04T18:49:58;7.80;99.90
6468;DHT22;3267;48.794;9.928;2023-02-04T18:52:24;7.80;99.90
6468;DHT22;3267;48.794;9.928;2023-02-04T18:54:55;8.60;99.90
6468;DHT22;3267;48.794;9.928;2023-02-04T18:57:24;8.40;99.90
6468;DHT22;3267;48.794;9.928;2023-02-04T19:00:16;8.60;99.90
6468;DHT22;3267;48.794;9.928;2023-02-04T19:02:55;9.20;99.90
6468;DHT22;3267;48.794;9.928;2023-02-04T19:07:56;9.20;99.90
6468;DHT22;3267;48.794;9.928;2023-02-04T19:10:27;9.30;99.90
6468;DHT22;3267;48.794;9.928;2023-02-04T19:13:17;9.30;99.90
6468;DHT22;3267;48.794;9.928;2023-02-04T19:15:44;9.40;99.90
6468;DHT22;3267;48.794;9.928;2023-02-04T19:18:24;9.60;99.90
6468;DHT22;3267;48.794;9.928;2023-02-04T19:20:50;9.90;99.90
6468;DHT22;3267;48.794;9.928;2023-02-04T19:23:21;10.00;99.90
6468;DHT22;3267;48.794;9.928;2023-02-04T19:25:49;10.00;99.90
6468;DHT22;3267;48.794;9.928;2023-02-04T19:28:32;9.90;99.90
6468;DHT22;3267;48.794;9.928;2023-02-04T19:31:03;11.10;99.90
6468;DHT22;3267;48.794;9.928;2023-02-04T19:33:38;9.30;99.90
6468;DHT22;3267;48.794;9.928;2023-02-04T19:36:28;9.20;99.90
6468;DHT22;3267;48.794;9.928;2023-02-04T19:39:26;9.20;99.90
6468;DHT22;3267;48.794;9.928;2023-02-04T19:41:53;9.30;99.90
6468;DHT22;3267;48.794;9.928;2023-02-04T19:44:41;9.20;99.90
6468;DHT22;3267;48.794;9.928;2023-02-04T19:47:23;9.20;99.90
6468;DHT22;3267;48.794;9.928;2023-02-04T19:49:49;9.20;99.90
6468;DHT22;3267;48.794;9.928;2023-02-04T19:54:50;9.70;99.90
6468;DHT22;3267;48.794;9.928;2023-02-04T19:57:23;10.20;99.90
6468;DHT22;3267;48.794;9.928;2023-02-04T19:59:53;9.50;99.90
6468;DHT22;3267;48.794;9.928;2023-02-04T20:04:49;8.90;99.90
6468;DHT22;3267;48.794;9.928;2023-02-04T20:07:22;8.50;99.90
6468;DHT22;3267;48.794;9.928;2023-02-04T20:09:56;7.70;99.90
6468;DHT22;3267;48.794;9.928;2023-02-04T20:12:24;7.90;99.90
6468;DHT22;3267;48.794;9.928;2023-02-04T20:15:11;7.70;99.90
6468;DHT22;3267;48.794;9.928;2023-02-04T20:17:46;7.60;99.90
6468;DHT22;3267;48.794;9.928;2023-02-04T20:20:25;7.50;99.90
6468;DHT22;3267;48.794;9.928;2023-02-04T20:22:54;7.40;99.90
6468;DHT22;3267;48.794;9.928;2023-02-04T20:27:49;7.00;99.90
6468;DHT22;3267;48.794;9.928;2023-02-04T20:30:25;6.90;99.90
6468;DHT22;3267;48.794;9.928;2023-02-04T20:32:57;6.80;99.90
6468;DHT22;3267;48.794;9.928;2023-02-04T20:37:59;6.70;99.90
6468;DHT22;3267;48.794;9.928;2023-02-04T20:40:35;6.60;99.90
6468;DHT22;3267;48.794;9.928;2023-02-04T20:43:02;6.50;99.90
6468;DHT22;3267;48.794;9.928;2023-02-04T20:50:52;6.40;99.90
6468;DHT22;3267;48.794;9.928;2023-02-04T20:55:54;6.60;99.90
6468;DHT22;3267;48.794;9.928;2023-02-04T20:58:22;7.20;99.90
6468;DHT22;3267;48.794;9.928;2023-02-04T21:00:50;7.00;99.90
6468;DHT22;3267;48.794;9.928;2023-02-04T21:03:34;6.80;99.90
6468;DHT22;3267;48.794;9.928;2023-02-04T21:06:02;6.50;99.90
6468;DHT22;3267;48.794;9.928;2023-02-04T21:11:00;6.10;99.90
6468;DHT22;3267;48.794;9.928;2023-02-04T21:13:26;6.00;99.90
6468;DHT22;3267;48.794;9.928;2023-02-04T21:15:52;6.00;99.90
6468;DHT22;3267;48.794;9.928;2023-02-04T21:18:18;6.50;99.90
6468;DHT22;3267;48.794;9.928;2023-02-04T21:20:44;6.40;99.90
6468;DHT22;3267;48.794;9.928;2023-02-04T21:23:10;6.80;99.90
6468;DHT22;3267;48.794;9.928;2023-02-04T21:25:36;6.80;99.90
6468;DHT22;3267;48.794;9.928;2023-02-04T21:28:03;6.80;99.90
6468;DHT22;3267;48.794;9.928;2023-02-04T21:30:30;6.60;99.90
6468;DHT22;3267;48.794;9.928;2023-02-04T21:32:56;6.50;99.90
6468;DHT22;3267;48.794;9.928;2023-02-04T21:35:22;6.50;99.90
6468;DHT22;3267;48.794;9.928;2023-02-04T21:37:56;6.80;99.90
6468;DHT22;3267;48.794;9.928;2023-02-04T21:40:27;6.70;99.90
6468;DHT22;3267;48.794;9.928;2023-02-04T21:42:53;7.10;99.90
6468;DHT22;3267;48.794;9.928;2023-02-04T21:45:20;7.10;99.90
6468;DHT22;3267;48.794;9.928;2023-02-04T21:47:47;7.20;99.90
6468;DHT22;3267;48.794;9.928;2023-02-04T21:50:14;6.90;99.90
6468;DHT22;3267;48.794;9.928;2023-02-04T21:52:40;6.70;99.90
6468;DHT22;3267;48.794;9.928;2023-02-04T21:55:07;6.50;99.90
6468;DHT22;3267;48.794;9.928;2023-02-04T21:57:33;6.70;99.90
6468;DHT22;3267;48.794;9.928;2023-02-04T21:59:59;6.50;99.90
6468;DHT22;3267;48.794;9.928;2023-02-04T22:04:51;6.50;99.90
6468;DHT22;3267;48.794;9.928;2023-02-04T22:07:17;6.40;99.90
6468;DHT22;3267;48.794;9.928;2023-02-04T22:09:43;6.30;99.90
6468;DHT22;3267;48.794;9.928;2023-02-04T22:12:08;6.10;99.90
6468;DHT22;3267;48.794;9.928;2023-02-04T22:14:34;6.40;99.90
6468;DHT22;3267;48.794;9.928;2023-02-04T22:17:19;6.00;99.90
6468;DHT22;3267;48.794;9.928;2023-02-04T22:19:44;5.90;99.90
6468;DHT22;3267;48.794;9.928;2023-02-04T22:22:10;6.60;99.90
6468;DHT22;3267;48.794;9.928;2023-02-04T22:24:36;6.00;99.90
6468;DHT22;3267;48.794;9.928;2023-02-04T22:27:01;8.00;99.90
6468;DHT22;3267;48.794;9.928;2023-02-04T22:29:27;7.30;99.90
